createdAt,value
2019-04-23T00:04:05.842Z,5.25
2019-04-23T00:06:45.500Z,4.65
2019-04-23T00:09:13.713Z,5.00
2019-04-23T00:11:51.616Z,5.40
2019-04-23T00:14:15.537Z,5.33
2019-04-23T00:16:41.782Z,5.03
2019-04-23T00:19:22.892Z,4.78
2019-04-23T00:21:46.037Z,5.17
2019-04-23T00:27:35.572Z,5.58
2019-04-23T00:30:12.941Z,5.47
2019-04-23T00:32:30.318Z,5.85
2019-04-23T00:34:59.623Z,6.47
2019-04-23T00:37:31.563Z,5.95
2019-04-23T00:39:56.537Z,6.20
2019-04-23T00:42:40.459Z,6.53
2019-04-23T00:44:56.250Z,5.87
2019-04-23T00:50:12.727Z,6.17
2019-04-23T00:52:35.289Z,6.28
2019-04-23T00:55:19.069Z,7.22
2019-04-23T00:57:35.907Z,6.83
2019-04-23T01:00:11.452Z,6.40
2019-04-23T01:02:37.526Z,6.62
2019-04-23T01:07:38.563Z,7.65
2019-04-23T01:10:10.593Z,7.25
2019-04-23T01:15:14.168Z,7.60
2019-04-23T01:20:14.571Z,8.58
2019-04-23T01:22:46.433Z,8.35
2019-04-23T01:25:31.052Z,8.65
2019-04-23T01:28:13.732Z,8.13
2019-04-23T01:30:47.524Z,8.65
2019-04-23T01:33:34.071Z,8.65
2019-04-23T01:36:14.444Z,8.45
2019-04-23T01:38:35.128Z,8.08
2019-04-23T01:41:00.293Z,8.50
2019-04-23T01:43:33.655Z,8.48
2019-04-23T01:46:02.698Z,8.83
2019-04-23T01:48:34.254Z,8.35
2019-04-23T01:51:20.191Z,7.42
2019-04-23T01:56:04.875Z,8.10
2019-04-23T01:58:44.087Z,7.92
2019-04-23T02:01:30.040Z,8.13
2019-04-23T02:03:43.799Z,8.18
2019-04-23T02:06:13.598Z,7.97
2019-04-23T02:08:47.289Z,8.45
2019-04-23T02:11:11.516Z,8.68
2019-04-23T02:13:49.699Z,8.63
2019-04-23T02:16:19.274Z,7.87
2019-04-23T02:18:56.716Z,7.92
2019-04-23T02:21:33.424Z,8.40
2019-04-23T02:24:12.132Z,7.83
2019-04-23T02:26:43.487Z,8.55
2019-04-23T02:29:34.449Z,8.15
2019-04-23T02:31:58.260Z,7.62
2019-04-23T02:34:33.450Z,8.13
2019-04-23T02:36:55.014Z,8.23
2019-04-23T02:39:32.728Z,8.65
2019-04-23T02:42:07.768Z,7.53
2019-04-23T02:49:35.773Z,7.83
2019-04-23T02:51:59.259Z,7.78
2019-04-23T02:59:51.298Z,7.47
2019-04-23T03:02:15.551Z,7.70
2019-04-23T03:04:33.956Z,8.18
2019-04-23T03:09:39.868Z,8.03
2019-04-23T03:12:18.364Z,7.55
2019-04-23T03:14:43.684Z,7.22
2019-04-23T03:19:47.553Z,9.20
2019-04-23T03:22:35.438Z,8.25
2019-04-23T03:27:31.197Z,8.28
2019-04-23T03:33:44.091Z,8.98
2019-04-23T03:35:17.777Z,9.40
2019-04-23T03:42:42.798Z,7.92
2019-04-23T03:47:42.285Z,9.40
2019-04-23T03:50:14.691Z,10.03
2019-04-23T03:55:28.309Z,10.75
2019-04-23T03:57:54.106Z,8.95
2019-04-23T04:00:33.203Z,8.60
2019-04-23T04:05:36.047Z,8.90
2019-04-23T04:10:30.771Z,8.33
2019-04-23T04:12:56.859Z,8.75
2019-04-23T04:15:53.433Z,9.20
2019-04-23T04:18:13.924Z,8.80
2019-04-23T04:20:46.982Z,9.45
2019-04-23T04:25:37.484Z,13.98
2019-04-23T04:28:25.641Z,12.47
2019-04-23T04:30:38.843Z,15.05
2019-04-23T04:33:38.660Z,17.82
2019-04-23T04:35:58.417Z,32.23
2019-04-23T04:41:03.083Z,31.55
2019-04-23T04:46:12.776Z,22.27
2019-04-23T04:48:44.392Z,7.90
2019-04-23T04:53:54.058Z,6.72
2019-04-23T04:56:16.593Z,17.90
2019-04-23T04:58:47.542Z,7.30
2019-04-23T05:03:29.134Z,7.20
2019-04-23T05:06:18.586Z,7.70
2019-04-23T05:13:49.851Z,8.00
2019-04-23T05:16:27.564Z,7.80
2019-04-23T05:19:06.191Z,7.78
2019-04-23T05:21:26.821Z,6.83
2019-04-23T05:24:14.922Z,9.15
2019-04-23T05:26:26.564Z,7.87
2019-04-23T05:29:01.900Z,9.10
2019-04-23T05:34:02.572Z,7.83
2019-04-23T05:36:35.577Z,7.10
2019-04-23T05:39:12.151Z,35.45
2019-04-23T05:41:36.909Z,6.30
2019-04-23T05:44:10.400Z,6.30
2019-04-23T05:46:42.953Z,7.37
2019-04-23T05:54:12.536Z,17.80
2019-04-23T05:56:54.119Z,8.18
2019-04-23T05:59:11.633Z,15.10
2019-04-23T06:04:17.694Z,5.83
2019-04-23T06:06:55.818Z,9.33
2019-04-23T06:11:50.965Z,5.92
2019-04-23T06:16:49.662Z,6.22
2019-04-23T06:24:43.042Z,7.42
2019-04-23T06:27:00.988Z,8.15
2019-04-23T06:29:33.580Z,7.72
2019-04-23T06:32:02.778Z,7.12
2019-04-23T06:34:43.614Z,7.62
2019-04-23T06:37:09.247Z,7.47
2019-04-23T06:39:55.178Z,8.50
2019-04-23T06:42:23.123Z,8.70
2019-04-23T06:44:58.229Z,5.87
2019-04-23T06:47:29.354Z,6.97
2019-04-23T06:49:55.542Z,6.58
2019-04-23T06:52:21.566Z,5.08
2019-04-23T06:57:39.798Z,5.10
2019-04-23T07:00:04.331Z,4.95
2019-04-23T07:05:03.231Z,4.03
2019-04-23T07:07:42.593Z,3.40
2019-04-23T07:09:58.286Z,4.08
2019-04-23T07:12:36.407Z,6.78
2019-04-23T07:15:27.994Z,4.03
2019-04-23T07:17:34.587Z,4.70
2019-04-23T07:20:11.622Z,3.67
2019-04-23T07:22:35.546Z,7.95
2019-04-23T07:25:12.867Z,3.58
2019-04-23T07:27:37.861Z,3.72
2019-04-23T07:30:17.069Z,4.47
2019-04-23T07:32:49.650Z,3.10
2019-04-23T07:35:13.314Z,4.20
2019-04-23T07:37:48.859Z,3.22
2019-04-23T07:40:31.294Z,2.90
2019-04-23T07:43:03.393Z,3.10
2019-04-23T07:45:34.923Z,3.45
2019-04-23T07:50:42.426Z,5.10
2019-04-23T08:01:01.917Z,4.90
2019-04-23T08:03:31.283Z,3.30
2019-04-23T08:06:08.813Z,2.52
2019-04-23T08:08:30.335Z,2.60
2019-04-23T08:16:25.947Z,2.50
2019-04-23T08:18:52.381Z,2.72
2019-04-23T08:21:14.716Z,2.25
2019-04-23T08:24:01.913Z,2.20
2019-04-23T08:26:50.802Z,2.10
2019-04-23T08:29:24.976Z,2.23
2019-04-23T08:34:39.075Z,2.15
2019-04-23T08:39:39.831Z,2.35
2019-04-23T08:42:27.090Z,2.20
2019-04-23T08:44:44.960Z,3.00
2019-04-23T08:54:52.294Z,2.12
2019-04-23T08:57:14.482Z,2.35
2019-04-23T09:04:58.366Z,4.92
2019-04-23T09:07:20.566Z,3.65
2019-04-23T09:09:56.685Z,3.72
2019-04-23T09:12:23.712Z,4.15
2019-04-23T09:14:52.338Z,3.90
2019-04-23T09:17:27.789Z,3.85
2019-04-23T09:20:11.852Z,2.98
2019-04-23T09:22:28.354Z,3.98
2019-04-23T09:25:06.622Z,3.05
2019-04-23T09:27:39.749Z,2.30
2019-04-23T09:30:00.929Z,2.10
2019-04-23T09:35:08.654Z,3.42
2019-04-23T09:40:25.354Z,2.45
2019-04-23T09:45:48.808Z,4.12
2019-04-23T09:48:15.194Z,3.55
2019-04-23T09:50:52.340Z,3.98
2019-04-23T09:55:41.914Z,3.52
2019-04-23T10:00:46.840Z,3.33
2019-04-23T10:03:09.020Z,3.60
2019-04-23T10:05:48.275Z,3.92
2019-04-23T10:08:18.548Z,4.17
2019-04-23T10:10:38.412Z,3.27
2019-04-23T10:13:08.334Z,3.67
2019-04-23T10:15:42.508Z,3.45
2019-04-23T10:18:10.023Z,3.92
2019-04-23T10:20:40.655Z,4.22
2019-04-23T10:23:10.349Z,3.95
2019-04-23T10:25:43.665Z,4.03
2019-04-23T10:28:26.601Z,4.28
2019-04-23T10:30:56.590Z,4.47
2019-04-23T10:33:25.532Z,4.33
2019-04-23T10:36:02.212Z,4.37
2019-04-23T10:38:26.713Z,5.00
2019-04-23T10:40:58.023Z,4.60
2019-04-23T10:43:28.776Z,4.45
2019-04-23T10:46:31.057Z,5.22
2019-04-23T10:49:34.879Z,5.55
2019-04-23T10:52:09.636Z,5.85
2019-04-23T10:54:39.941Z,5.70
2019-04-23T10:56:59.557Z,5.90
2019-04-23T11:07:28.747Z,5.28
2019-04-23T11:17:45.962Z,6.70
2019-04-23T11:22:45.058Z,6.70
2019-04-23T11:25:28.074Z,6.40
2019-04-23T11:27:53.934Z,7.12
2019-04-23T11:33:09.112Z,5.92
2019-04-23T11:40:26.836Z,5.12
2019-04-23T11:43:06.160Z,5.03
2019-04-23T11:45:32.492Z,5.67
2019-04-23T11:48:24.426Z,6.00
2019-04-23T11:51:20.804Z,6.55
2019-04-23T11:55:49.322Z,5.97
2019-04-23T11:58:13.779Z,5.50
2019-04-23T12:00:51.254Z,5.75
2019-04-23T12:03:17.806Z,5.70
2019-04-23T12:06:25.136Z,6.05
2019-04-23T12:08:43.202Z,5.60
2019-04-23T12:14:24.264Z,6.33
2019-04-23T12:16:50.535Z,6.90
2019-04-23T12:21:43.971Z,6.53
2019-04-23T12:26:50.629Z,7.12
2019-04-23T12:29:18.621Z,5.75
2019-04-23T12:31:49.154Z,5.53
2019-04-23T12:34:25.695Z,6.20
2019-04-23T12:36:51.029Z,6.28
2019-04-23T12:39:27.111Z,6.08
2019-04-23T12:42:01.653Z,6.60
2019-04-23T12:44:38.987Z,6.12
2019-04-23T12:47:27.130Z,6.17
2019-04-23T12:50:13.484Z,7.10
2019-04-23T12:52:28.339Z,6.75
2019-04-23T12:55:10.183Z,8.35
2019-04-23T12:57:29.945Z,9.68
2019-04-23T12:59:58.397Z,9.45
2019-04-23T13:02:38.336Z,10.70
2019-04-23T13:05:00.268Z,9.10
2019-04-23T13:07:38.558Z,10.93
2019-04-23T13:12:47.399Z,8.65
2019-04-23T13:15:11.365Z,10.28
2019-04-23T13:22:48.903Z,9.60
2019-04-23T13:25:34.813Z,7.33
2019-04-23T13:30:46.086Z,8.10
2019-04-23T13:38:32.133Z,9.00
2019-04-23T13:48:31.243Z,7.53
2019-04-23T13:51:19.826Z,8.33
2019-04-23T13:56:09.075Z,7.70
2019-04-23T13:58:50.165Z,7.58
2019-04-23T14:01:23.499Z,7.12
2019-04-23T14:04:00.996Z,8.18
2019-04-23T14:08:55.194Z,7.72
2019-04-23T14:17:16.588Z,9.38
2019-04-23T14:19:34.183Z,8.08
2019-04-23T14:22:32.768Z,8.90
2019-04-23T14:27:37.126Z,7.87
2019-04-23T14:32:39.417Z,8.90
2019-04-23T14:38:12.905Z,7.87
2019-04-23T14:40:22.111Z,7.67
2019-04-23T14:42:56.104Z,7.42
2019-04-23T14:45:31.294Z,6.75
2019-04-23T14:48:02.807Z,7.08
2019-04-23T14:53:13.254Z,7.60
2019-04-23T14:58:11.225Z,7.15
2019-04-23T15:00:41.370Z,7.45
2019-04-23T15:05:45.974Z,7.62
2019-04-23T15:08:15.289Z,7.53
2019-04-23T15:13:14.729Z,7.83
2019-04-23T15:15:48.660Z,10.10
2019-04-23T15:18:33.095Z,7.78
2019-04-23T15:21:42.759Z,7.90
2019-04-23T15:24:06.971Z,9.28
2019-04-23T15:27:29.583Z,8.45
2019-04-23T15:28:43.666Z,8.90
2019-04-23T15:31:52.698Z,9.55
2019-04-23T15:34:09.315Z,10.88
2019-04-23T15:36:51.759Z,12.23
2019-04-23T15:42:08.856Z,10.58
2019-04-23T15:44:08.682Z,10.38
2019-04-23T15:46:40.900Z,10.25
2019-04-23T15:52:03.991Z,13.78
2019-04-23T15:54:35.610Z,13.00
2019-04-23T15:59:33.381Z,11.63
2019-04-23T16:01:42.038Z,11.35
2019-04-23T16:04:08.793Z,11.63
2019-04-23T16:06:38.498Z,11.80
2019-04-23T16:09:28.493Z,11.95
2019-04-23T16:12:01.467Z,11.35
2019-04-23T16:14:47.881Z,10.95
2019-04-23T16:17:17.462Z,11.83
2019-04-23T16:19:54.141Z,12.15
2019-04-23T16:22:30.347Z,12.05
2019-04-23T16:24:55.531Z,12.07
2019-04-23T16:27:16.932Z,11.43
2019-04-23T16:30:10.438Z,11.80
2019-04-23T16:35:06.196Z,13.20
2019-04-23T16:37:27.210Z,11.63
2019-04-23T16:40:03.500Z,11.68
2019-04-23T16:42:29.247Z,14.50
2019-04-23T16:47:29.732Z,12.20
2019-04-23T16:50:13.026Z,11.45
2019-04-23T16:52:32.867Z,12.30
2019-04-23T16:55:07.086Z,9.35
2019-04-23T17:02:34.202Z,11.55
2019-04-23T17:05:16.202Z,10.95
2019-04-23T17:07:41.822Z,9.33
2019-04-23T17:10:16.100Z,10.38
2019-04-23T17:12:46.284Z,9.35
2019-04-23T17:15:23.203Z,8.43
2019-04-23T17:17:37.955Z,9.23
2019-04-23T17:20:16.665Z,8.58
2019-04-23T17:22:46.869Z,8.88
2019-04-23T17:25:17.630Z,8.70
2019-04-23T17:27:48.852Z,8.88
2019-04-23T17:30:22.171Z,9.48
2019-04-23T17:33:02.488Z,8.88
2019-04-23T17:35:29.614Z,8.43
2019-04-23T17:38:00.697Z,8.68
2019-04-23T17:40:24.451Z,8.78
2019-04-23T17:43:02.989Z,9.28
2019-04-23T17:45:33.848Z,7.97
2019-04-23T17:48:13.231Z,8.90
2019-04-23T17:53:41.311Z,8.80
2019-04-23T18:01:11.038Z,8.48
2019-04-23T18:03:30.362Z,8.90
2019-04-23T18:08:27.739Z,9.05
2019-04-23T18:13:27.685Z,9.30
2019-04-23T18:16:09.584Z,8.88
2019-04-23T18:18:39.564Z,9.20
2019-04-23T18:24:08.973Z,9.18
2019-04-23T18:26:47.053Z,8.80
2019-04-23T18:29:27.768Z,9.23
2019-04-23T18:32:14.622Z,9.28
2019-04-23T18:34:53.818Z,9.65
2019-04-23T18:42:29.642Z,8.90
2019-04-23T18:45:00.334Z,9.60
2019-04-23T18:47:37.807Z,9.33
2019-04-23T18:50:02.631Z,9.00
2019-04-23T18:52:48.457Z,8.73
2019-04-23T18:54:53.990Z,7.75
2019-04-23T18:57:32.152Z,7.62
2019-04-23T19:00:09.079Z,7.37
2019-04-23T19:02:55.107Z,8.23
2019-04-23T19:05:30.915Z,7.37
2019-04-23T19:08:10.225Z,8.53
2019-04-23T19:10:30.743Z,8.00
2019-04-23T19:13:12.632Z,8.68
2019-04-23T19:15:39.622Z,10.55
2019-04-23T19:18:04.003Z,9.28
2019-04-23T19:23:16.372Z,9.28
2019-04-23T19:25:40.519Z,10.60
2019-04-23T19:28:29.061Z,8.78
2019-04-23T19:31:05.034Z,8.60
2019-04-23T19:33:41.906Z,8.55
2019-04-23T19:38:33.344Z,8.05
2019-04-23T19:43:45.833Z,7.03
2019-04-23T19:46:22.310Z,7.25
2019-04-23T19:48:42.256Z,7.25
2019-04-23T19:58:46.754Z,7.85
2019-04-23T20:06:13.770Z,8.20
2019-04-23T20:09:03.811Z,7.80
2019-04-23T20:11:09.158Z,7.72
2019-04-23T20:16:23.182Z,7.42
2019-04-23T20:21:04.050Z,7.55
2019-04-23T20:36:38.559Z,7.97
2019-04-23T20:39:12.251Z,7.53
2019-04-23T20:42:07.870Z,7.45
2019-04-23T20:44:35.889Z,7.00
2019-04-23T20:47:00.287Z,7.35
2019-04-23T20:49:31.923Z,8.23
2019-04-23T20:52:00.170Z,7.22
2019-04-23T20:54:39.632Z,7.15
2019-04-23T20:57:24.935Z,6.83
2019-04-23T20:59:50.008Z,6.58
2019-04-23T21:02:39.709Z,6.75
2019-04-23T21:05:10.210Z,6.78
2019-04-23T21:07:30.554Z,6.05
2019-04-23T21:10:08.894Z,6.60
2019-04-23T21:12:48.209Z,5.87
2019-04-23T21:15:08.689Z,7.08
2019-04-23T21:17:40.657Z,6.80
2019-04-23T21:20:08.465Z,6.55
2019-04-23T21:24:54.606Z,6.87
2019-04-23T21:30:03.460Z,6.87
2019-04-23T21:32:42.174Z,7.60
2019-04-23T21:35:17.726Z,7.97
2019-04-23T21:37:49.507Z,13.25
2019-04-23T21:42:58.919Z,8.00
2019-04-23T21:45:24.415Z,6.78
2019-04-23T21:48:02.996Z,6.58
2019-04-23T21:50:25.238Z,6.58
2019-04-23T21:52:56.093Z,6.37
2019-04-23T21:55:37.100Z,6.85
2019-04-23T21:57:59.607Z,8.98
2019-04-23T22:00:26.237Z,15.18
2019-04-23T22:03:02.584Z,16.37
2019-04-23T22:05:40.540Z,16.40
2019-04-23T22:07:58.146Z,17.62
2019-04-23T22:10:26.427Z,22.25
2019-04-23T22:13:11.916Z,27.95
2019-04-23T22:15:39.577Z,32.35
2019-04-23T22:20:39.815Z,31.02
2019-04-23T22:25:41.748Z,31.27
2019-04-23T22:27:58.260Z,26.75
2019-04-23T22:30:42.379Z,28.07
2019-04-23T22:35:45.060Z,12.30
2019-04-23T22:40:41.665Z,12.10
2019-04-23T22:43:14.719Z,20.60
2019-04-23T22:45:44.397Z,12.20
2019-04-23T22:48:11.844Z,12.88
2019-04-23T22:50:57.018Z,19.30
2019-04-23T22:55:49.697Z,14.63
2019-04-23T22:58:10.826Z,10.00
2019-04-23T23:01:14.701Z,8.23
2019-04-23T23:03:35.666Z,7.30
2019-04-23T23:06:10.687Z,7.28
2019-04-23T23:08:52.236Z,7.08
2019-04-23T23:11:02.311Z,7.05
2019-04-23T23:16:24.554Z,6.58
2019-04-23T23:18:50.015Z,7.35
2019-04-23T23:21:13.386Z,6.55
2019-04-23T23:23:39.510Z,7.30
2019-04-23T23:26:09.836Z,6.50
2019-04-23T23:28:40.990Z,7.33
2019-04-23T23:31:16.155Z,7.05
2019-04-23T23:36:16.024Z,12.10
2019-04-23T23:38:50.846Z,13.05
2019-04-23T23:44:05.985Z,12.68
2019-04-23T23:46:22.147Z,12.60
2019-04-23T23:48:41.973Z,13.85
2019-04-23T23:51:16.518Z,13.32
2019-04-23T23:54:00.405Z,12.45
2019-04-23T23:56:34.948Z,12.43
